Time;durP1;ratioP1;P1;durP2;ratioP2;P2;SDS_P1;SDS_P2;PMS_P1;PMS_P2;Temp;Humidity;BMP_temperature;BMP_pressure;BME280_temperature;BME280_humidity;BME280_pressure;Samples;Min_cycle;Max_cycle;Signal;HPM_P1;HPM_P2
2023/01/10 00:00:40;;;;;;;6.47;4.40;;;;;;;19.43;49.13;100308.28;5057191;28;20052;-49
2023/01/10 00:03:10;;;;;;;9.50;4.88;;;;;;;19.43;49.02;100312.81;5057369;28;20045;-51
2023/01/10 00:05:39;;;;;;;7.57;4.95;;;;;;;19.43;48.94;100312.81;5057100;28;20076;-48
2023/01/10 00:08:07;;;;;;;8.40;4.88;;;;;;;19.42;48.88;100320.00;5057446;28;20045;-55
2023/01/10 00:10:35;;;;;;;7.00;4.63;;;;;;;19.43;48.91;100323.53;5056961;28;20128;-54
2023/01/10 00:15:50;;;;;;;5.88;4.95;;;;;;;19.42;49.00;100321.84;5057001;28;20411;-56
2023/01/10 00:18:19;;;;;;;8.13;4.47;;;;;;;19.42;48.92;100316.50;5057046;28;20048;-48
2023/01/10 00:20:48;;;;;;;5.78;4.15;;;;;;;19.42;49.28;100319.16;5056888;28;20053;-48
2023/01/10 00:23:17;;;;;;;6.05;4.88;;;;;;;19.40;49.06;100321.97;5056671;28;20052;-48
2023/01/10 00:25:45;;;;;;;6.53;4.60;;;;;;;19.40;49.02;100323.81;5056632;28;20041;-48
2023/01/10 00:28:18;;;;;;;6.15;4.10;;;;;;;19.39;49.11;100324.81;5056930;28;20517;-48
2023/01/10 00:30:53;;;;;;;6.18;4.45;;;;;;;19.39;49.15;100327.50;5056717;28;20379;-48
2023/01/10 00:33:21;;;;;;;6.30;4.60;;;;;;;19.39;49.13;100332.88;5056644;28;20053;-48
2023/01/10 00:35:48;;;;;;;7.78;4.65;;;;;;;19.39;49.21;100327.50;5056665;28;20049;-48
2023/01/10 00:38:16;;;;;;;6.20;4.43;;;;;;;19.38;48.81;100337.41;5056670;28;20120;-53
2023/01/10 00:40:45;;;;;;;4.88;3.88;;;;;;;19.38;49.19;100333.88;5056534;28;20072;-55
2023/01/10 00:45:58;;;;;;;6.88;4.85;;;;;;;19.37;49.43;100332.19;5056537;28;20417;-52
2023/01/10 00:48:26;;;;;;;5.35;4.05;;;;;;;19.36;49.17;100328.63;5056511;28;20044;-55
2023/01/10 00:50:54;;;;;;;6.32;4.35;;;;;;;19.37;48.89;100333.03;5056464;28;20049;-55
2023/01/10 00:53:21;;;;;;;6.50;4.47;;;;;;;19.34;49.17;100336.00;5056163;28;20049;-55
2023/01/10 00:55:49;;;;;;;4.97;3.92;;;;;;;19.36;49.36;100331.31;5056451;28;20060;-55
2023/01/10 00:58:16;;;;;;;6.20;3.65;;;;;;;19.35;49.12;100345.72;5056321;28;20052;-50
2023/01/10 01:00:48;;;;;;;5.35;3.97;;;;;;;19.34;49.05;100349.41;5056283;28;20049;-48
2023/01/10 01:03:18;;;;;;;9.38;4.15;;;;;;;19.35;49.28;100355.63;5056361;28;20071;-50
2023/01/10 01:05:47;;;;;;;6.82;5.05;;;;;;;19.34;49.14;100362.84;5056300;28;20399;-48
2023/01/10 01:08:16;;;;;;;4.57;3.63;;;;;;;19.34;49.04;100353.94;5056357;28;20053;-55
2023/01/10 01:10:44;;;;;;;6.50;4.40;;;;;;;19.33;48.94;100365.69;5055898;28;20056;-56
2023/01/10 01:13:19;;;;;;;5.13;3.80;;;;;;;19.33;48.90;100360.31;5055962;28;20052;-54
2023/01/10 01:15:48;;;;;;;6.90;4.20;;;;;;;19.33;48.98;100363.00;5055874;28;20509;-55
2023/01/10 01:18:19;;;;;;;4.78;3.65;;;;;;;19.33;49.02;100371.03;5055920;28;20056;-49
2023/01/10 01:20:52;;;;;;;6.35;3.38;;;;;;;19.32;49.01;100378.22;5055790;28;20045;-48
2023/01/10 01:23:19;;;;;;;6.13;3.78;;;;;;;19.32;48.99;100388.97;5056043;28;20045;-49
2023/01/10 01:25:50;;;;;;;6.10;3.92;;;;;;;19.32;48.93;100383.59;5056540;28;20482;-48
2023/01/10 01:28:18;;;;;;;7.03;4.00;;;;;;;19.33;49.04;100387.16;5056031;28;20055;-49
2023/01/10 01:30:45;;;;;;;4.68;3.20;;;;;;;19.33;48.92;100385.31;5055763;28;20037;-49
2023/01/10 01:33:14;;;;;;;4.97;3.50;;;;;;;19.32;48.92;100386.28;5054682;28;20379;-50
2023/01/10 01:35:42;;;;;;;5.13;3.83;;;;;;;19.32;49.02;100380.06;5055498;28;20049;-48
2023/01/10 01:38:11;;;;;;;4.63;3.38;;;;;;;19.32;49.12;100390.78;5055750;28;20075;-49
2023/01/10 01:40:40;;;;;;;5.47;3.72;;;;;;;19.32;48.98;100388.13;5055505;28;20060;-48
2023/01/10 01:43:21;;;;;;;5.65;3.72;;;;;;;19.32;48.98;100397.00;5055238;28;20403;-48
2023/01/10 01:45:49;;;;;;;5.95;3.38;;;;;;;19.32;48.97;100393.47;5055259;28;20060;-48
2023/01/10 01:48:28;;;;;;;5.53;3.58;;;;;;;19.31;49.02;100392.63;5054209;28;20060;-48
2023/01/10 01:51:12;;;;;;;4.78;2.90;;;;;;;19.31;49.46;100392.63;5053711;28;20049;-48
2023/01/10 01:53:43;;;;;;;;;;;;;;;19.31;49.05;100389.13;5055919;28;20048;-51
2023/01/10 01:56:33;;;;;;;5.18;3.55;;;;;;;19.31;48.89;100389.13;5055308;28;19920;-48
2023/01/10 01:59:27;;;;;;;4.20;3.50;;;;;;;19.30;48.91;100398.16;5054059;28;20060;-52
2023/01/10 02:01:59;;;;;;;5.03;3.58;;;;;;;19.31;48.91;100394.47;5055221;28;20045;-54
2023/01/10 02:04:30;;;;;;;5.03;3.42;;;;;;;19.30;49.04;100409.75;5054957;28;20044;-54
2023/01/10 02:06:58;;;;;;;4.65;3.30;;;;;;;19.31;49.03;100410.59;5054590;28;20067;-56
2023/01/10 02:09:39;;;;;;;4.47;2.92;;;;;;;19.30;49.34;100411.59;5055014;28;20044;-56
2023/01/10 02:12:08;;;;;;;5.88;3.50;;;;;;;19.29;49.15;100409.91;5054722;28;20415;-56
2023/01/10 02:14:37;;;;;;;5.05;3.38;;;;;;;19.29;49.06;100415.25;5054879;28;20045;-54
2023/01/10 02:17:04;;;;;;;4.97;3.33;;;;;;;19.29;49.06;100423.31;5055062;28;20051;-55
2023/01/10 02:20:04;;;;;;;4.40;3.03;;;;;;;19.28;49.36;100427.81;5054846;28;20052;-48
2023/01/10 02:23:08;;;;;;;4.63;3.28;;;;;;;19.27;49.32;100432.34;5057794;28;20049;-48
2023/01/10 02:26:00;;;;;;;3.92;2.80;;;;;;;19.28;49.26;100430.50;5054854;28;20463;-49
2023/01/10 02:29:09;;;;;;;4.30;3.22;;;;;;;19.27;49.39;100437.69;5054947;28;20471;-54
2023/01/10 02:32:12;;;;;;;4.95;3.15;;;;;;;19.26;49.19;100446.75;5055163;28;20048;-54
2023/01/10 02:35:17;;;;;;;6.47;3.08;;;;;;;19.26;49.30;100438.69;5063853;28;20479;-55
2023/01/10 02:38:02;;;;;;;4.63;3.10;;;;;;;19.25;49.19;100439.69;5063880;28;20057;-50
2023/01/10 02:40:35;;;;;;;4.30;3.00;;;;;;;19.26;49.18;100453.94;5054390;28;20052;-47
2023/01/10 02:43:29;;;;;;;;;;;;;;;19.26;49.14;100441.38;5054410;28;20056;-49
2023/01/10 02:46:02;;;;;;;3.93;2.73;;;;;;;19.26;49.09;100444.06;5053966;28;19920;-48
2023/01/10 02:48:29;;;;;;;5.28;3.20;;;;;;;19.25;48.92;100444.22;5054633;28;20479;-48
2023/01/10 02:51:27;;;;;;;4.28;2.83;;;;;;;19.24;49.02;100448.75;5054324;28;20052;-48
2023/01/10 02:54:11;;;;;;;7.57;3.28;;;;;;;19.25;48.88;100446.91;5057812;28;20064;-48
2023/01/10 02:57:07;;;;;;;3.70;2.63;;;;;;;19.26;49.26;100452.13;5054155;28;20210;-48
2023/01/10 02:59:47;;;;;;;4.40;2.80;;;;;;;19.26;49.10;100456.63;5054390;28;20056;-53
2023/01/10 03:02:50;;;;;;;3.83;2.65;;;;;;;19.25;49.09;100463.84;5054056;28;20372;-54
2023/01/10 03:05:36;;;;;;;3.40;2.70;;;;;;;19.26;49.17;100468.22;5054342;28;20045;-52
2023/01/10 03:08:15;;;;;;;4.57;2.70;;;;;;;19.26;49.10;100480.78;5054219;28;20041;-52
2023/01/10 03:10:47;;;;;;;4.32;2.72;;;;;;;19.27;49.11;100479.78;5054640;28;20060;-52
2023/01/10 03:13:48;;;;;;;3.28;2.25;;;;;;;19.25;48.94;100492.53;5053972;28;20052;-54
2023/01/10 03:16:19;;;;;;;3.88;2.50;;;;;;;19.25;48.65;100484.47;5054134;28;20045;-55
2023/01/10 03:18:55;;;;;;;3.53;2.53;;;;;;;19.25;49.06;100496.06;5054162;28;20064;-49
2023/01/10 03:21:24;;;;;;;3.60;2.60;;;;;;;19.24;49.01;100499.72;5053777;28;20041;-49
2023/01/10 03:23:57;;;;;;;4.80;2.45;;;;;;;19.24;48.83;100504.22;5053799;28;20044;-49
2023/01/10 03:26:48;;;;;;;3.85;2.60;;;;;;;19.23;49.00;100511.44;5053960;28;20056;-48
2023/01/10 03:29:24;;;;;;;3.30;2.13;;;;;;;19.23;48.98;100508.75;5056276;28;20407;-48
2023/01/10 03:31:56;;;;;;;3.72;2.38;;;;;;;19.23;48.86;100513.25;5053358;28;20057;-49
2023/01/10 03:34:25;;;;;;;3.93;2.17;;;;;;;19.22;49.04;100525.00;5053720;28;20518;-49
2023/01/10 03:37:11;;;;;;;3.92;2.33;;;;;;;19.22;49.08;100520.47;5053631;28;20048;-49
2023/01/10 03:39:56;;;;;;;2.85;2.03;;;;;;;19.21;49.20;100524.16;5053807;28;20055;-55
2023/01/10 03:45:38;;;;;;;3.20;2.13;;;;;;;19.22;49.23;100525.00;5053749;28;20048;-57
2023/01/10 03:48:07;;;;;;;4.00;2.28;;;;;;;19.23;49.22;100538.25;5052591;28;20049;-49
2023/01/10 03:50:37;;;;;;;3.35;2.30;;;;;;;19.23;49.38;100534.72;5053909;28;20056;-48
2023/01/10 03:53:04;;;;;;;2.95;2.05;;;;;;;19.22;49.32;100536.56;5054652;28;20075;-49
2023/01/10 03:55:33;;;;;;;4.55;2.25;;;;;;;19.23;49.43;100540.94;5053432;28;20051;-49
2023/01/10 03:58:01;;;;;;;4.60;2.00;;;;;;;19.22;49.33;100539.25;5053699;28;20364;-52
2023/01/10 04:00:29;;;;;;;3.67;2.30;;;;;;;19.22;49.00;100541.94;5053523;28;20045;-55
2023/01/10 04:02:58;;;;;;;3.28;1.90;;;;;;;19.22;48.99;100552.69;5053688;28;20041;-56
2023/01/10 04:05:25;;;;;;;3.05;2.00;;;;;;;19.22;49.11;100547.31;5053425;28;20402;-52
2023/01/10 04:07:52;;;;;;;3.20;1.95;;;;;;;19.22;49.05;100560.72;5053573;28;20060;-51
2023/01/10 04:10:20;;;;;;;3.33;2.03;;;;;;;19.22;49.24;100568.78;5053408;28;20041;-48
2023/01/10 04:12:47;;;;;;;3.08;2.00;;;;;;;19.23;49.10;100565.09;5053423;28;20049;-48
2023/01/10 04:15:14;;;;;;;4.80;2.00;;;;;;;19.23;49.08;100569.63;5052131;28;20049;-49
2023/01/10 04:17:42;;;;;;;3.38;2.05;;;;;;;19.22;49.31;100573.31;5053437;28;20045;-48
2023/01/10 04:20:10;;;;;;;3.50;1.80;;;;;;;19.22;49.14;100575.97;5053201;28;20036;-50
2023/01/10 04:22:37;;;;;;;2.50;1.55;;;;;;;19.22;49.29;100587.56;5053205;28;20044;-49
2023/01/10 04:25:05;;;;;;;3.88;1.80;;;;;;;19.23;49.10;100591.09;5053732;28;20049;-49
2023/01/10 04:27:32;;;;;;;3.35;2.40;;;;;;;19.23;49.09;100586.56;5053438;28;20060;-53
2023/01/10 04:30:00;;;;;;;3.40;2.10;;;;;;;19.22;49.29;100594.78;5053281;28;20080;-55
2023/01/10 04:32:27;;;;;;;3.60;2.28;;;;;;;19.22;49.12;100598.31;5053164;28;20045;-54
2023/01/10 04:34:54;;;;;;;2.85;1.90;;;;;;;19.22;49.21;100600.97;5053293;28;20056;-55
2023/01/10 04:37:23;;;;;;;3.17;1.83;;;;;;;19.21;49.30;100601.97;5053143;28;20047;-52
2023/01/10 04:39:50;;;;;;;3.28;1.73;;;;;;;19.23;49.22;100609.88;5053044;28;20048;-47
2023/01/10 04:42:18;;;;;;;2.67;1.80;;;;;;;19.22;48.99;100619.78;5052913;28;20053;-49
2023/01/10 04:44:45;;;;;;;2.63;1.52;;;;;;;19.21;49.07;100617.22;5054868;28;20049;-48
2023/01/10 04:47:12;;;;;;;2.83;1.70;;;;;;;19.21;48.86;100614.56;5056648;28;20048;-48
2023/01/10 04:49:40;;;;;;;4.25;2.05;;;;;;;19.21;49.17;100622.59;5056890;28;20057;-51
2023/01/10 04:52:07;;;;;;;2.42;1.48;;;;;;;19.20;49.04;100628.94;5056220;28;20037;-55
2023/01/10 04:54:34;;;;;;;3.22;1.75;;;;;;;19.19;49.04;100625.41;5056294;28;20041;-53
2023/01/10 04:57:01;;;;;;;2.78;2.08;;;;;;;19.20;48.92;100637.84;5055865;28;20120;-54
2023/01/10 04:59:29;;;;;;;3.10;1.80;;;;;;;19.20;48.89;100640.53;5038491;28;20048;-54
2023/01/10 05:01:56;;;;;;;3.15;1.80;;;;;;;19.20;48.69;100645.91;5056086;28;20049;-54
2023/01/10 05:04:24;;;;;;;4.40;1.95;;;;;;;19.20;48.97;100639.66;5054849;28;20060;-53
2023/01/10 05:06:51;;;;;;;2.42;1.35;;;;;;;19.19;48.96;100652.25;5056187;28;20041;-53
2023/01/10 05:09:18;;;;;;;2.65;1.30;;;;;;;19.18;49.04;100658.59;5056563;28;20056;-50
2023/01/10 05:11:46;;;;;;;3.38;1.45;;;;;;;19.19;48.92;100668.34;5056429;28;20045;-50
2023/01/10 05:14:13;;;;;;;3.33;1.75;;;;;;;19.19;49.09;100664.81;5055939;28;20051;-49
2023/01/10 05:16:40;;;;;;;2.95;1.70;;;;;;;19.18;48.91;100677.38;5056080;28;20068;-49
2023/01/10 05:19:08;;;;;;;2.30;1.38;;;;;;;19.18;49.12;100674.69;5056133;28;20040;-52
2023/01/10 05:21:35;;;;;;;2.42;1.35;;;;;;;19.17;49.14;100683.75;5056089;28;20045;-55
2023/01/10 05:24:03;;;;;;;3.65;2.03;;;;;;;19.18;48.96;100692.63;5055933;28;20364;-54
2023/01/10 05:26:30;;;;;;;3.13;1.90;;;;;;;19.17;49.18;100689.09;5056426;28;20049;-54
2023/01/10 05:28:57;;;;;;;3.00;1.50;;;;;;;19.17;48.75;100690.94;5055844;28;20414;-54
2023/01/10 05:31:25;;;;;;;3.25;1.58;;;;;;;19.16;48.69;100690.09;5055767;28;20048;-52
2023/01/10 05:33:52;;;;;;;3.50;1.65;;;;;;;19.17;48.60;100702.53;5055670;28;20048;-54
2023/01/10 05:36:19;;;;;;;3.47;1.40;;;;;;;19.17;49.08;100710.56;5055764;28;20041;-53
2023/01/10 05:38:47;;;;;;;3.22;1.70;;;;;;;19.16;48.88;100711.56;5055924;28;20052;-55
2023/01/10 05:41:14;;;;;;;3.80;1.55;;;;;;;19.17;48.68;100707.91;5054304;28;20360;-54
2023/01/10 05:43:41;;;;;;;2.33;1.40;;;;;;;19.16;48.83;100708.88;5055119;28;20060;-56
2023/01/10 05:46:09;;;;;;;2.75;1.55;;;;;;;19.17;48.94;100715.09;5054977;28;20051;-56
2023/01/10 05:48:36;;;;;;;2.83;1.70;;;;;;;19.17;48.67;100720.47;5055372;28;20041;-51
2023/01/10 05:51:04;;;;;;;3.35;1.65;;;;;;;19.17;48.97;100725.84;5055159;28;20041;-49
2023/01/10 05:53:31;;;;;;;3.50;1.40;;;;;;;19.16;49.17;100729.47;5055000;28;20048;-49
2023/01/10 05:56:00;;;;;;;1.80;1.10;;;;;;;19.16;48.87;100729.47;5052529;28;20048;-51
2023/01/10 05:58:28;;;;;;;3.03;1.67;;;;;;;19.14;48.96;100734.97;5055653;28;20059;-49
2023/01/10 06:00:56;;;;;;;3.13;1.38;;;;;;;19.14;48.97;100743.03;5055098;28;20040;-49
2023/01/10 06:03:25;;;;;;;3.10;1.50;;;;;;;19.14;49.00;100737.66;5055173;28;20052;-49
2023/01/10 06:05:54;;;;;;;3.08;1.63;;;;;;;19.14;48.87;100756.44;5055132;28;20120;-49
2023/01/10 06:08:22;;;;;;;2.45;1.50;;;;;;;19.14;48.74;100756.44;5055078;28;20053;-49
2023/01/10 06:10:50;;;;;;;3.60;1.58;;;;;;;19.14;48.82;100759.13;5054734;28;20376;-51
2023/01/10 06:13:17;;;;;;;6.40;1.70;;;;;;;19.15;48.76;100765.34;5054874;28;20056;-47
2023/01/10 06:15:44;;;;;;;3.00;1.48;;;;;;;19.15;48.79;100773.41;5053569;28;20407;-47
2023/01/10 06:18:12;;;;;;;2.92;1.58;;;;;;;19.15;48.78;100771.56;5055145;28;20053;-54
2023/01/10 06:20:40;;;;;;;2.83;1.50;;;;;;;19.14;48.88;100775.25;5054786;28;20049;-53
2023/01/10 06:23:08;;;;;;;2.95;1.50;;;;;;;19.15;48.71;100778.78;5053574;28;20041;-55
2023/01/10 06:25:39;;;;;;;3.55;2.20;;;;;;;19.14;48.88;100782.44;5036820;28;20056;-53
2023/01/10 06:28:12;;;;;;;2.78;1.65;;;;;;;19.13;48.76;100784.28;5054925;28;20459;-49
2023/01/10 06:30:40;;;;;;;3.25;1.60;;;;;;;19.14;48.83;100785.13;5054636;28;20052;-47
2023/01/10 06:33:10;;;;;;;4.38;1.67;;;;;;;19.13;48.94;100797.69;5054531;28;20045;-48
2023/01/10 06:35:38;;;;;;;3.45;1.48;;;;;;;19.13;48.69;100803.06;5054448;28;20388;-48
2023/01/10 06:38:05;;;;;;;2.33;1.38;;;;;;;19.12;48.75;100804.06;5054483;28;20044;-47
2023/01/10 06:40:33;;;;;;;3.22;1.67;;;;;;;19.13;48.74;100823.69;5054268;28;20045;-52
2023/01/10 06:43:00;;;;;;;2.63;1.13;;;;;;;19.12;48.57;100828.22;5054134;28;20057;-51
2023/01/10 06:45:27;;;;;;;3.60;1.60;;;;;;;19.11;48.68;100834.53;5054314;28;20494;-51
2023/01/10 06:47:55;;;;;;;2.60;1.58;;;;;;;19.11;48.64;100850.63;5054564;28;20490;-51
2023/01/10 06:50:22;;;;;;;4.43;1.77;;;;;;;19.11;48.53;100850.63;5054409;28;20049;-52
2023/01/10 06:53:01;;;;;;;4.03;1.40;;;;;;;19.11;48.53;100842.56;5054220;28;20044;-52
2023/01/10 06:55:29;;;;;;;2.55;1.52;;;;;;;19.11;48.41;100858.69;5053855;28;20045;-54
2023/01/10 06:58:01;;;;;;;2.72;1.60;;;;;;;19.11;48.34;100861.38;5054132;28;20072;-47
2023/01/10 07:00:29;;;;;;;2.70;1.67;;;;;;;19.10;48.35;100870.41;5054917;28;20055;-49
2023/01/10 07:02:58;;;;;;;2.25;1.20;;;;;;;19.11;48.36;100869.41;5053785;28;20048;-50
2023/01/10 07:05:26;;;;;;;2.75;1.60;;;;;;;19.10;48.16;100875.78;5053962;28;20513;-50
2023/01/10 07:07:56;;;;;;;2.92;1.73;;;;;;;19.11;48.27;100879.28;5054066;28;20053;-51
2023/01/10 07:10:23;;;;;;;3.17;1.80;;;;;;;19.10;48.24;100886.50;5054005;28;20049;-49
2023/01/10 07:12:54;;;;;;;3.97;1.90;;;;;;;19.11;48.08;100881.97;5053647;28;20041;-48
2023/01/10 07:15:21;;;;;;;2.25;1.20;;;;;;;19.10;48.31;100894.56;5053744;28;20414;-48
2023/01/10 07:17:49;;;;;;;3.00;1.30;;;;;;;19.09;48.18;100908.97;5053837;28;20499;-52
2023/01/10 07:20:17;;;;;;;2.67;1.40;;;;;;;19.10;48.24;100928.59;5052564;28;20407;-48
2023/01/10 07:22:53;;;;;;;2.72;1.33;;;;;;;19.10;48.52;100920.53;5053696;28;20038;-48
2023/01/10 07:25:21;;;;;;;2.72;1.30;;;;;;;19.10;48.30;100931.28;5054134;28;20053;-49
2023/01/10 07:27:49;;;;;;;3.10;1.52;;;;;;;19.10;48.14;100950.91;5053815;28;20427;-55
2023/01/10 07:30:20;;;;;;;2.53;1.33;;;;;;;19.09;48.21;100946.53;5053420;28;20052;-50
2023/01/10 07:32:56;;;;;;;2.28;1.27;;;;;;;19.09;48.31;100961.78;5053217;28;20060;-48
2023/01/10 07:35:24;;;;;;;2.80;1.65;;;;;;;19.08;48.41;100968.97;5052387;28;20053;-49
2023/01/10 07:37:52;;;;;;;2.40;1.25;;;;;;;19.08;48.30;100977.03;5053540;28;20045;-52
2023/01/10 07:40:20;;;;;;;2.58;1.33;;;;;;;19.08;48.50;100976.16;5053266;28;20045;-49
2023/01/10 07:42:47;;;;;;;6.10;1.70;;;;;;;19.07;48.42;100979.81;5052922;28;20475;-49
2023/01/10 07:45:14;;;;;;;2.70;1.30;;;;;;;19.07;48.44;100982.50;5053056;28;20403;-48
2023/01/10 07:47:42;;;;;;;2.63;1.13;;;;;;;19.06;48.72;100978.97;5053502;28;20123;-54
2023/01/10 07:50:11;;;;;;;2.20;1.17;;;;;;;19.05;48.60;100988.00;5053354;28;20048;-55
2023/01/10 07:52:39;;;;;;;2.92;1.60;;;;;;;19.07;48.31;100999.44;5053222;28;20045;-52
2023/01/10 07:55:06;;;;;;;3.38;1.33;;;;;;;19.07;48.26;101012.03;5053336;28;20041;-55
2023/01/10 07:57:34;;;;;;;3.35;1.30;;;;;;;19.08;48.59;101016.41;5053362;28;20045;-51
2023/01/10 08:00:02;;;;;;;2.88;1.27;;;;;;;19.09;49.00;101013.59;5053204;28;20055;-56
2023/01/10 08:02:31;;;;;;;3.95;1.38;;;;;;;19.08;45.86;101019.09;5053104;28;20049;-56
2023/01/10 08:04:58;;;;;;;3.17;1.40;;;;;;;19.00;44.34;101015.22;5053366;28;20362;-55
2023/01/10 08:07:28;;;;;;;3.67;1.55;;;;;;;19.01;47.36;101024.97;5053099;28;20060;-54
2023/01/10 08:09:55;;;;;;;4.28;1.30;;;;;;;19.03;48.42;101028.34;5052520;28;20049;-53
2023/01/10 08:12:23;;;;;;;4.38;1.73;;;;;;;19.05;48.43;101036.31;5053334;28;20053;-55
2023/01/10 08:14:51;;;;;;;4.05;1.23;;;;;;;19.07;48.75;101030.81;5052435;28;20056;-53
2023/01/10 08:17:19;;;;;;;4.38;1.40;;;;;;;19.09;48.89;101045.81;5052503;28;20049;-56
2023/01/10 08:19:46;;;;;;;2.72;1.05;;;;;;;19.11;48.96;101043.00;5055155;28;20045;-52
2023/01/10 08:22:13;;;;;;;4.40;1.23;;;;;;;19.14;48.76;101046.28;5055481;28;20045;-52
2023/01/10 08:24:41;;;;;;;9.98;1.10;;;;;;;19.16;48.90;101046.16;5054746;28;20644;-48
2023/01/10 08:27:08;;;;;;;5.72;1.20;;;;;;;19.19;48.79;101053.94;5056677;28;20056;-52
2023/01/10 08:29:35;;;;;;;2.97;1.10;;;;;;;19.21;48.07;101063.59;5056855;28;20048;-46
2023/01/10 08:32:03;;;;;;;3.20;1.55;;;;;;;19.22;47.74;101059.06;5056747;28;20045;-47
2023/01/10 08:34:30;;;;;;;4.50;1.63;;;;;;;19.24;46.97;101049.06;5056531;28;20049;-47
2023/01/10 08:36:57;;;;;;;2.22;1.25;;;;;;;19.27;47.33;101059.53;5056471;28;20045;-48
2023/01/10 08:39:27;;;;;;;3.35;1.30;;;;;;;19.29;47.70;101062.13;5056664;28;20048;-58
2023/01/10 08:41:54;;;;;;;6.65;1.48;;;;;;;19.30;48.13;101067.34;5056393;28;20053;-52
2023/01/10 08:44:22;;;;;;;2.97;0.98;;;;;;;19.32;47.58;101070.75;5056377;28;20052;-57
2023/01/10 08:46:49;;;;;;;6.57;1.20;;;;;;;19.33;46.22;101072.47;5056399;28;20414;-56
2023/01/10 08:49:16;;;;;;;5.55;1.23;;;;;;;19.35;46.19;101083.94;5057256;28;20057;-56
2023/01/10 08:51:45;;;;;;;6.72;1.45;;;;;;;19.36;42.65;101087.47;5056572;28;20049;-56
2023/01/10 08:54:12;;;;;;;4.13;1.27;;;;;;;19.36;44.06;101095.50;5056199;28;20403;-56
2023/01/10 08:56:40;;;;;;;8.98;1.55;;;;;;;19.36;43.84;101099.03;5055986;28;20049;-51
2023/01/10 08:59:07;;;;;;;8.10;1.55;;;;;;;19.37;43.13;101110.66;5056718;28;20099;-56
2023/01/10 09:01:35;;;;;;;3.25;1.02;;;;;;;19.37;42.61;101114.19;5056253;28;20056;-55
2023/01/10 09:04:04;;;;;;;3.72;0.95;;;;;;;19.37;42.04;101116.88;5056488;28;20052;-58
2023/01/10 09:06:31;;;;;;;3.53;1.17;;;;;;;19.38;44.02;101118.59;5054632;28;20049;-57
2023/01/10 09:08:58;;;;;;;4.47;1.20;;;;;;;19.37;41.41;101122.25;5055140;28;20049;-48
2023/01/10 09:11:25;;;;;;;3.70;1.20;;;;;;;19.38;41.60;101113.22;5055729;28;20056;-48
2023/01/10 09:13:53;;;;;;;1.88;0.70;;;;;;;19.37;41.38;101116.88;5055561;28;20037;-46
2023/01/10 09:16:22;;;;;;;1.98;0.70;;;;;;;19.39;41.52;101122.13;5055434;28;20407;-48
2023/01/10 09:18:49;;;;;;;1.98;1.00;;;;;;;19.38;41.46;101134.69;5055771;28;20068;-47
2023/01/10 09:21:17;;;;;;;2.38;1.23;;;;;;;19.39;41.21;101143.59;5055610;28;20049;-48
2023/01/10 09:23:44;;;;;;;1.38;0.73;;;;;;;19.40;40.47;101137.25;5055599;28;20130;-48
2023/01/10 09:26:12;;;;;;;2.20;0.90;;;;;;;19.40;40.56;101138.09;5055657;28;20378;-49
2023/01/10 09:28:39;;;;;;;3.13;1.10;;;;;;;19.40;40.46;101148.81;5055667;28;20049;-58
2023/01/10 09:31:07;;;;;;;1.90;0.90;;;;;;;19.41;40.43;101160.44;5054354;28;20053;-56
2023/01/10 09:33:35;;;;;;;1.70;0.90;;;;;;;19.42;40.12;101164.84;5055317;28;20048;-55
2023/01/10 09:36:14;;;;;;;3.92;1.08;;;;;;;19.42;40.04;101168.38;5055553;28;20057;-56
2023/01/10 09:38:42;;;;;;;2.95;0.93;;;;;;;19.42;39.75;101162.16;5055381;28;20045;-47
2023/01/10 09:41:35;;;;;;;1.73;0.80;;;;;;;19.42;40.03;101167.53;5055095;28;20060;-51
2023/01/10 09:44:20;;;;;;;1.70;0.68;;;;;;;19.43;39.80;101172.75;5054155;28;20064;-50
2023/01/10 09:46:59;;;;;;;2.50;0.90;;;;;;;19.43;39.59;101174.59;5055355;28;20072;-48
2023/01/10 09:49:51;;;;;;;3.20;1.20;;;;;;;19.44;39.44;101181.66;5055223;28;20060;-54
2023/01/10 09:52:26;;;;;;;3.08;1.10;;;;;;;19.42;39.21;101173.75;5054763;28;20056;-53
2023/01/10 09:54:57;;;;;;;3.70;1.10;;;;;;;19.42;39.53;101184.47;5054756;28;20485;-53
2023/01/10 09:57:25;;;;;;;2.13;1.00;;;;;;;19.42;39.34;101189.00;5054657;28;20060;-53
2023/01/10 09:59:53;;;;;;;2.58;1.10;;;;;;;19.43;40.07;101193.38;5054723;28;20045;-46
2023/01/10 10:02:33;;;;;;;1.50;0.63;;;;;;;19.44;42.21;101208.50;5054966;28;20056;-51
2023/01/10 10:05:36;;;;;;;2.78;1.10;;;;;;;19.44;40.79;101211.19;5055070;28;20045;-48
2023/01/10 10:08:12;;;;;;;2.00;0.80;;;;;;;19.37;37.05;101213.53;5052682;28;20056;-47
2023/01/10 10:10:50;;;;;;;3.13;1.00;;;;;;;19.33;37.97;101211.22;5052485;28;20069;-48
2023/01/10 10:13:35;;;;;;;2.67;0.88;;;;;;;19.30;37.04;101201.56;5051289;28;20052;-52
2023/01/10 10:16:21;;;;;;;1.77;0.70;;;;;;;19.30;37.54;101217.69;5052339;28;20064;-51
2023/01/10 10:18:59;;;;;;;1.60;0.70;;;;;;;19.32;38.63;101222.91;5036106;28;20419;-57
2023/01/10 10:21:40;;;;;;;3.83;1.05;;;;;;;19.33;40.54;101219.28;5052444;28;20053;-56
2023/01/10 10:25:03;;;;;;;3.22;0.88;;;;;;;19.33;37.08;101219.28;5052162;28;20051;-49
2023/01/10 10:27:54;;;;;;;2.65;0.80;;;;;;;19.32;37.67;101215.72;5049806;28;20195;-50
2023/01/10 10:30:37;;;;;;;2.67;0.70;;;;;;;19.31;42.22;101208.63;5052140;28;20057;-53
2023/01/10 10:33:35;;;;;;;2.03;0.80;;;;;;;19.30;42.78;101214.16;5052110;28;20045;-47
2023/01/10 10:36:14;;;;;;;2.08;0.63;;;;;;;19.27;43.67;101213.41;5052105;28;20061;-49
2023/01/10 10:38:46;;;;;;;1.48;0.40;;;;;;;19.27;46.79;101218.75;5029403;28;20419;-50
2023/01/10 10:41:31;;;;;;;2.15;0.65;;;;;;;19.25;45.83;101210.00;5031726;28;20053;-50
2023/01/10 10:44:05;;;;;;;2.00;0.60;;;;;;;19.23;44.18;101214.63;5034174;28;20038;-51
2023/01/10 10:46:32;;;;;;;1.73;0.60;;;;;;;19.23;45.20;101211.09;5035134;28;20060;-50
2023/01/10 10:49:05;;;;;;;1.40;0.68;;;;;;;19.21;43.73;101219.28;5034254;28;20042;-57
2023/01/10 10:51:46;;;;;;;5.00;0.70;;;;;;;19.20;45.94;101222.94;5034160;28;20052;-57
2023/01/10 10:54:15;;;;;;;2.15;0.75;;;;;;;19.21;46.99;101218.41;5033757;28;20045;-59
2023/01/10 10:56:43;;;;;;;2.40;0.55;;;;;;;19.20;46.87;101222.06;5048523;28;20053;-55
2023/01/10 10:59:17;;;;;;;1.80;0.80;;;;;;;19.19;46.93;101221.19;5053880;28;20049;-45
2023/01/10 11:01:48;;;;;;;2.88;0.73;;;;;;;19.18;47.44;101214.13;5053812;28;20075;-49
2023/01/10 11:04:20;;;;;;;2.45;0.40;;;;;;;19.18;47.59;101216.81;5053665;28;20048;-46
2023/01/10 11:06:48;;;;;;;2.25;0.52;;;;;;;19.16;47.49;101216.09;5053759;28;20060;-44
2023/01/10 11:12:00;;;;;;;1.77;0.63;;;;;;;19.15;49.54;101235.00;5053620;28;20379;-56
2023/01/10 11:14:48;;;;;;;3.20;0.55;;;;;;;19.18;50.26;101229.38;5053609;28;20044;-59
2023/01/10 11:17:21;;;;;;;3.05;0.70;;;;;;;19.17;49.88;101231.22;5053365;28;20052;-57
2023/01/10 11:20:01;;;;;;;1.27;0.60;;;;;;;19.18;49.84;101238.28;5053638;28;20415;-47
2023/01/10 11:22:37;;;;;;;2.50;0.60;;;;;;;19.18;49.37;101232.91;5052125;28;20422;-48
2023/01/10 11:25:13;;;;;;;1.08;0.45;;;;;;;19.19;49.14;101236.47;5052988;28;20048;-46
2023/01/10 11:27:49;;;;;;;1.27;0.52;;;;;;;19.18;49.17;101232.06;5053360;28;20045;-49
2023/01/10 11:30:29;;;;;;;2.60;0.52;;;;;;;19.18;49.19;101227.56;5053239;28;20052;-48
2023/01/10 11:33:00;;;;;;;2.80;0.47;;;;;;;19.18;49.28;101218.66;5053182;28;20142;-49
2023/01/10 11:35:32;;;;;;;5.85;0.80;;;;;;;19.17;48.94;101220.50;5053346;28;20045;-49
2023/01/10 11:38:04;;;;;;;3.97;0.60;;;;;;;19.18;49.09;101219.50;5053761;28;20049;-48
2023/01/10 11:40:36;;;;;;;3.47;0.65;;;;;;;19.18;49.09;101214.13;5053272;28;20379;-47
2023/01/10 11:43:23;;;;;;;1.85;0.50;;;;;;;19.19;48.90;101236.47;5053002;28;20057;-51
2023/01/10 11:46:01;;;;;;;1.35;0.52;;;;;;;19.20;49.50;101232.78;5052965;28;20386;-46
2023/01/10 11:49:04;;;;;;;1.65;0.60;;;;;;;19.20;49.06;101231.00;5053310;28;20056;-46
2023/01/10 11:51:57;;;;;;;2.65;0.50;;;;;;;19.20;48.68;101244.41;5051775;28;20052;-48
2023/01/10 11:54:27;;;;;;;4.95;0.70;;;;;;;19.20;47.63;101262.31;5056485;28;20052;-49
2023/01/10 11:57:03;;;;;;;1.42;0.45;;;;;;;19.19;47.61;101253.41;5057303;28;20056;-52
2023/01/10 11:59:31;;;;;;;1.48;0.52;;;;;;;19.18;47.45;101240.97;5057283;28;20517;-50
2023/01/10 12:02:21;;;;;;;1.42;0.63;;;;;;;19.18;48.38;101251.72;5057111;28;20399;-48